createdAt,value
2018-07-24T00:01:21.355Z,21.44
2018-07-24T00:03:49.728Z,21.41
2018-07-24T00:06:18.105Z,21.34
2018-07-24T00:08:46.927Z,21.23
2018-07-24T00:11:15.310Z,21.18
2018-07-24T00:13:43.681Z,21.17
2018-07-24T00:16:12.063Z,21.14
2018-07-24T00:18:40.437Z,21.12
2018-07-24T00:21:08.805Z,21.06
2018-07-24T00:23:37.170Z,20.81
2018-07-24T00:26:05.537Z,20.51
2018-07-24T00:28:33.903Z,20.29
2018-07-24T00:31:02.276Z,20.16
2018-07-24T00:33:30.657Z,20.04
2018-07-24T00:35:59.031Z,19.95
2018-07-24T00:38:27.397Z,19.94
2018-07-24T00:40:55.817Z,19.91
2018-07-24T00:43:24.553Z,19.89
2018-07-24T00:45:52.920Z,19.82
2018-07-24T00:48:21.292Z,19.76
2018-07-24T00:50:49.662Z,19.76
2018-07-24T00:53:18.398Z,19.82
2018-07-24T00:55:47.303Z,19.79
2018-07-24T00:58:15.680Z,19.80
2018-07-24T01:00:44.069Z,19.80
2018-07-24T01:03:12.444Z,19.91
2018-07-24T01:05:40.805Z,20.05
2018-07-24T01:08:09.173Z,20.14
2018-07-24T01:10:37.565Z,20.22
2018-07-24T01:13:05.937Z,20.27
2018-07-24T01:15:34.314Z,20.29
2018-07-24T01:18:02.682Z,20.34
2018-07-24T01:20:31.059Z,20.36
2018-07-24T01:22:59.430Z,20.24
2018-07-24T01:25:27.795Z,20.14
2018-07-24T01:27:56.177Z,20.05
2018-07-24T01:30:24.545Z,19.97
2018-07-24T01:32:52.927Z,19.95
2018-07-24T01:35:21.304Z,19.89
2018-07-24T01:37:49.691Z,19.83
2018-07-24T01:40:18.062Z,19.72
2018-07-24T01:42:46.482Z,19.63
2018-07-24T01:45:14.866Z,19.58
2018-07-24T01:47:43.243Z,19.53
2018-07-24T01:50:11.623Z,19.51
2018-07-24T01:52:39.999Z,19.46
2018-07-24T01:55:09.714Z,19.40
2018-07-24T01:57:40.006Z,19.37
2018-07-24T02:00:10.680Z,19.32
2018-07-24T02:02:39.635Z,19.30
2018-07-24T02:05:06.901Z,19.29
2018-07-24T02:07:35.256Z,19.29
2018-07-24T02:10:03.640Z,19.27
2018-07-24T02:12:32.015Z,19.29
2018-07-24T02:15:00.393Z,19.28
2018-07-24T02:17:28.766Z,19.30
2018-07-24T02:19:57.132Z,19.33
2018-07-24T02:22:25.527Z,19.31
2018-07-24T02:24:53.895Z,19.26
2018-07-24T02:27:22.267Z,19.31
2018-07-24T02:29:50.640Z,19.34
2018-07-24T02:32:19.017Z,19.29
2018-07-24T02:34:47.389Z,19.30
2018-07-24T02:37:15.784Z,19.28
2018-07-24T02:39:44.467Z,19.33
2018-07-24T02:42:12.848Z,19.40
2018-07-24T02:44:41.251Z,19.47
2018-07-24T02:47:09.623Z,19.46
2018-07-24T02:49:37.994Z,19.52
2018-07-24T02:52:06.366Z,19.56
2018-07-24T02:54:34.742Z,19.54
2018-07-24T02:57:03.409Z,19.50
2018-07-24T02:59:31.791Z,19.46
2018-07-24T03:02:00.181Z,19.49
2018-07-24T03:04:28.547Z,19.54
2018-07-24T03:06:56.920Z,19.61
2018-07-24T03:09:25.298Z,19.64
2018-07-24T03:11:53.689Z,19.63
2018-07-24T03:14:22.060Z,19.63
2018-07-24T03:16:50.465Z,19.57
2018-07-24T03:19:18.829Z,19.53
2018-07-24T03:21:48.167Z,19.48
2018-07-24T03:24:16.774Z,19.44
2018-07-24T03:26:44.940Z,19.43
2018-07-24T03:29:13.322Z,19.40
2018-07-24T03:31:41.691Z,19.56
2018-07-24T03:34:10.071Z,19.55
2018-07-24T03:36:38.444Z,19.54
2018-07-24T03:39:06.877Z,19.58
2018-07-24T03:41:35.467Z,19.61
2018-07-24T03:44:03.852Z,19.61
2018-07-24T03:46:32.296Z,19.64
2018-07-24T03:49:00.673Z,19.80
2018-07-24T03:51:35.787Z,19.87
2018-07-24T03:54:10.262Z,19.88
2018-07-24T03:56:38.691Z,19.91
2018-07-24T03:59:07.058Z,19.90
2018-07-24T04:01:35.430Z,19.89
2018-07-24T04:04:03.813Z,19.94
2018-07-24T04:06:32.200Z,19.93
2018-07-24T04:09:00.580Z,19.87
2018-07-24T04:11:29.175Z,19.91
2018-07-24T04:13:57.316Z,19.81
2018-07-24T04:16:25.701Z,19.85
2018-07-24T04:18:54.309Z,19.85
2018-07-24T04:21:22.469Z,19.82
2018-07-24T04:23:51.765Z,19.81
2018-07-24T04:29:19.269Z,20.01
2018-07-24T04:31:47.646Z,20.04
2018-07-24T04:34:16.023Z,20.04
2018-07-24T04:36:45.319Z,20.02
2018-07-24T04:39:13.709Z,19.92
2018-07-24T04:41:42.103Z,19.87
2018-07-24T04:44:10.477Z,19.90
2018-07-24T04:46:38.886Z,19.99
2018-07-24T04:49:07.257Z,20.14
2018-07-24T04:51:35.636Z,20.30
2018-07-24T04:54:04.025Z,20.50
2018-07-24T04:56:32.387Z,20.68
2018-07-24T04:59:00.780Z,20.73
2018-07-24T05:01:29.157Z,20.70
2018-07-24T05:03:57.535Z,20.70
2018-07-24T05:06:25.923Z,20.64
2018-07-24T05:08:54.286Z,20.65
2018-07-24T05:11:22.661Z,20.67
2018-07-24T05:13:51.041Z,20.71
2018-07-24T05:16:19.414Z,20.71
2018-07-24T05:18:47.799Z,20.81
2018-07-24T05:21:16.177Z,20.98
2018-07-24T05:23:44.551Z,21.17
2018-07-24T05:26:12.945Z,21.36
2018-07-24T05:28:41.326Z,21.45
2018-07-24T05:31:19.978Z,21.57
2018-07-24T05:33:48.377Z,21.69
2018-07-24T05:36:16.759Z,21.86
2018-07-24T05:38:45.188Z,21.96
2018-07-24T05:41:13.520Z,22.07
2018-07-24T05:43:41.894Z,22.00
2018-07-24T05:49:08.986Z,22.08
2018-07-24T05:51:37.351Z,22.19
2018-07-24T05:54:19.867Z,22.26
2018-07-24T05:56:48.975Z,22.35
2018-07-24T05:59:17.365Z,22.45
2018-07-24T06:01:45.770Z,22.44
2018-07-24T06:04:14.135Z,22.29
2018-07-24T06:06:42.512Z,22.30
2018-07-24T06:09:10.878Z,22.37
2018-07-24T06:11:39.240Z,22.40
2018-07-24T06:14:07.633Z,22.45
2018-07-24T06:16:36.040Z,22.54
2018-07-24T06:19:04.374Z,22.61
2018-07-24T06:21:32.736Z,22.64
2018-07-24T06:24:01.098Z,22.70
2018-07-24T06:26:29.467Z,22.81
2018-07-24T06:28:58.433Z,22.87
2018-07-24T06:31:26.579Z,22.92
2018-07-24T06:33:54.947Z,22.96
2018-07-24T06:36:23.323Z,22.92
2018-07-24T06:38:51.689Z,22.94
2018-07-24T06:41:20.053Z,23.01
2018-07-24T06:43:55.100Z,23.05
2018-07-24T06:46:23.243Z,23.18
2018-07-24T06:48:51.611Z,23.27
2018-07-24T06:51:20.102Z,23.30
2018-07-24T06:53:48.396Z,23.32
2018-07-24T06:56:16.765Z,23.38
2018-07-24T06:58:45.144Z,23.43
2018-07-24T07:01:13.502Z,23.40
2018-07-24T07:03:41.873Z,23.47
2018-07-24T07:06:10.254Z,23.56
2018-07-24T07:09:11.434Z,23.61
2018-07-24T07:11:13.530Z,23.64
2018-07-24T07:13:41.939Z,23.71
2018-07-24T07:16:10.597Z,23.72
2018-07-24T07:18:38.949Z,23.74
2018-07-24T07:21:07.320Z,23.76
2018-07-24T07:23:35.717Z,23.77
2018-07-24T07:26:04.100Z,23.81
2018-07-24T07:28:32.460Z,23.79
2018-07-24T07:31:00.908Z,23.73
2018-07-24T07:33:29.267Z,23.70
2018-07-24T07:35:57.652Z,23.79
2018-07-24T07:38:26.026Z,23.86
2018-07-24T07:40:54.626Z,23.89
2018-07-24T07:43:22.764Z,23.92
2018-07-24T07:45:51.137Z,24.02
2018-07-24T07:48:19.514Z,24.05
2018-07-24T07:50:47.912Z,24.05
2018-07-24T07:53:16.236Z,24.12
2018-07-24T07:55:44.601Z,24.13
2018-07-24T07:58:12.978Z,24.16
2018-07-24T08:00:41.596Z,24.15
2018-07-24T08:03:10.901Z,24.22
2018-07-24T08:05:39.238Z,24.30
2018-07-24T08:08:07.602Z,24.34
2018-07-24T08:10:35.970Z,24.42
2018-07-24T08:13:04.333Z,24.56
2018-07-24T08:15:32.703Z,24.68
2018-07-24T08:18:01.066Z,24.71
2018-07-24T08:20:29.439Z,24.74
2018-07-24T08:22:57.802Z,24.78
2018-07-24T08:25:27.072Z,24.81
2018-07-24T08:27:55.814Z,24.91
2018-07-24T08:30:23.792Z,24.97
2018-07-24T08:32:52.152Z,25.09
2018-07-24T08:35:20.522Z,25.14
2018-07-24T08:37:49.821Z,25.21
2018-07-24T08:40:18.223Z,25.30
2018-07-24T08:42:47.199Z,25.26
2018-07-24T08:45:16.674Z,25.20
2018-07-24T08:47:45.012Z,25.18
2018-07-24T08:50:13.646Z,25.19
2018-07-24T08:52:42.329Z,25.20
2018-07-24T08:55:11.016Z,25.24
2018-07-24T08:57:39.105Z,25.29
2018-07-24T09:00:07.464Z,25.35
2018-07-24T09:02:36.350Z,25.42
2018-07-24T09:05:04.804Z,25.44
2018-07-24T09:07:33.162Z,25.54
2018-07-24T09:10:01.544Z,25.61
2018-07-24T09:12:30.199Z,25.74
2018-07-24T09:14:58.564Z,25.89
2018-07-24T09:17:27.518Z,26.01
2018-07-24T09:19:55.901Z,26.13
2018-07-24T09:22:24.316Z,26.23
2018-07-24T09:24:52.697Z,26.27
2018-07-24T09:27:21.064Z,26.17
2018-07-24T09:29:49.480Z,26.01
2018-07-24T09:32:17.829Z,25.97
2018-07-24T09:34:46.193Z,26.10
2018-07-24T09:37:14.581Z,26.11
2018-07-24T09:39:42.997Z,26.20
2018-07-24T09:42:11.334Z,26.29
2018-07-24T09:44:39.698Z,26.45
2018-07-24T09:47:08.069Z,26.57
2018-07-24T09:49:36.424Z,26.65
2018-07-24T09:52:04.782Z,26.70
2018-07-24T09:54:33.146Z,26.70
2018-07-24T09:57:01.548Z,26.68
2018-07-24T09:59:29.939Z,26.66
2018-07-24T10:01:58.266Z,26.64
2018-07-24T10:04:26.643Z,26.57
2018-07-24T10:06:55.002Z,26.46
2018-07-24T10:09:24.314Z,26.37
2018-07-24T10:11:52.688Z,26.36
2018-07-24T10:14:21.055Z,26.49
2018-07-24T10:16:49.453Z,26.66
2018-07-24T10:19:17.814Z,26.79
2018-07-24T10:21:46.156Z,26.89
2018-07-24T10:24:14.533Z,26.91
2018-07-24T10:26:42.895Z,26.82
2018-07-24T10:29:12.709Z,26.73
2018-07-24T10:31:41.083Z,26.72
2018-07-24T10:34:09.446Z,26.81
2018-07-24T10:36:37.811Z,26.93
2018-07-24T10:42:06.586Z,27.07
2018-07-24T10:44:35.006Z,27.11
2018-07-24T10:47:03.374Z,27.11
2018-07-24T10:49:31.727Z,27.01
2018-07-24T10:52:00.090Z,26.95
2018-07-24T10:54:28.457Z,26.92
2018-07-24T10:56:56.820Z,26.87
2018-07-24T10:59:25.549Z,26.86
2018-07-24T11:01:53.712Z,26.89
2018-07-24T11:04:22.083Z,26.82
2018-07-24T11:06:50.439Z,26.77
2018-07-24T11:09:18.825Z,26.73
2018-07-24T11:11:47.195Z,26.76
2018-07-24T11:14:15.554Z,26.79
2018-07-24T11:16:49.439Z,26.89
2018-07-24T11:19:18.767Z,27.17
2018-07-24T11:21:47.506Z,27.47
2018-07-24T11:24:15.827Z,27.66
2018-07-24T11:26:44.203Z,27.71
2018-07-24T11:29:14.176Z,27.65
2018-07-24T11:31:42.543Z,27.58
2018-07-24T11:34:11.854Z,27.50
2018-07-24T11:36:40.250Z,27.48
2018-07-24T11:39:18.362Z,27.48
2018-07-24T11:41:40.694Z,27.46
2018-07-24T11:44:09.126Z,27.51
2018-07-24T11:46:37.471Z,27.69
2018-07-24T11:49:07.095Z,27.80
2018-07-24T11:51:35.520Z,27.99
2018-07-24T11:54:03.826Z,28.26
2018-07-24T11:56:32.202Z,28.59
2018-07-24T11:59:00.611Z,28.71
2018-07-24T12:01:28.964Z,28.82
2018-07-24T12:03:57.323Z,28.90
2018-07-24T12:06:26.784Z,28.89
2018-07-24T12:08:55.676Z,28.99
2018-07-24T12:11:24.046Z,28.90
2018-07-24T12:13:52.470Z,28.82
2018-07-24T12:16:20.879Z,28.78
2018-07-24T12:18:49.358Z,28.59
2018-07-24T12:21:17.735Z,28.54
2018-07-24T12:23:46.090Z,28.48
2018-07-24T12:26:14.795Z,28.41
2018-07-24T12:28:43.164Z,28.41
2018-07-24T12:31:11.528Z,28.42
2018-07-24T12:33:47.156Z,28.52
2018-07-24T12:36:15.575Z,28.58
2018-07-24T12:38:43.918Z,28.70
2018-07-24T12:41:12.297Z,28.70
2018-07-24T12:43:40.988Z,28.68
2018-07-24T12:46:09.323Z,28.61
2018-07-24T12:48:38.287Z,28.54
2018-07-24T12:51:06.695Z,28.45
2018-07-24T12:53:35.052Z,28.53
2018-07-24T12:56:03.412Z,28.89
2018-07-24T12:58:31.776Z,29.13
2018-07-24T13:01:00.173Z,29.44
2018-07-24T13:03:28.539Z,29.74
2018-07-24T13:05:56.907Z,30.07
2018-07-24T13:08:25.620Z,30.22
2018-07-24T13:10:54.338Z,30.01
2018-07-24T13:13:23.012Z,29.75
2018-07-24T13:15:51.370Z,29.49
2018-07-24T13:18:19.732Z,29.26
2018-07-24T13:20:49.065Z,29.35
2018-07-24T13:23:17.432Z,29.51
2018-07-24T13:25:45.804Z,29.83
2018-07-24T13:28:14.155Z,30.21
2018-07-24T13:30:42.517Z,30.40
2018-07-24T13:33:10.892Z,30.78
2018-07-24T13:35:39.250Z,31.16
2018-07-24T13:38:07.629Z,31.44
2018-07-24T13:40:36.477Z,31.62
2018-07-24T13:43:04.853Z,31.83
2018-07-24T13:45:33.232Z,31.99
2018-07-24T13:48:01.607Z,32.21
2018-07-24T13:50:30.955Z,32.44
2018-07-24T13:52:59.320Z,32.63
2018-07-24T13:55:28.846Z,32.67
2018-07-24T13:58:00.876Z,32.77
2018-07-24T14:00:29.844Z,32.90
2018-07-24T14:03:02.760Z,32.85
2018-07-24T14:05:31.823Z,32.67
2018-07-24T14:08:00.385Z,32.65
2018-07-24T14:10:28.532Z,32.81
2018-07-24T14:12:56.922Z,32.90
2018-07-24T14:15:25.713Z,33.16
2018-07-24T14:17:54.215Z,33.47
2018-07-24T14:20:22.580Z,33.74
2018-07-24T14:22:50.948Z,33.47
2018-07-24T14:25:19.316Z,32.90
2018-07-24T14:27:47.741Z,32.34
2018-07-24T14:30:16.114Z,32.53
2018-07-24T14:32:44.485Z,32.15
2018-07-24T14:35:18.557Z,31.82
2018-07-24T14:37:47.507Z,32.25
2018-07-24T14:40:15.877Z,32.84
2018-07-24T14:42:44.236Z,33.36
2018-07-24T14:45:12.602Z,33.64
2018-07-24T14:47:40.982Z,33.31
2018-07-24T14:50:09.986Z,33.17
2018-07-24T14:52:38.367Z,33.52
2018-07-24T14:55:06.702Z,34.12
2018-07-24T14:57:35.079Z,34.16
2018-07-24T15:00:03.431Z,34.36
2018-07-24T15:02:31.791Z,34.62
2018-07-24T15:05:00.261Z,34.98
2018-07-24T15:07:28.606Z,35.31
2018-07-24T15:09:57.265Z,34.96
2018-07-24T15:12:25.633Z,34.03
2018-07-24T15:14:54.011Z,34.07
2018-07-24T15:17:22.866Z,34.00
2018-07-24T15:19:51.221Z,33.87
2018-07-24T15:22:19.593Z,34.19
2018-07-24T15:24:47.958Z,34.55
2018-07-24T15:27:16.314Z,34.93
2018-07-24T15:29:44.670Z,35.10
2018-07-24T15:32:13.034Z,35.21
2018-07-24T15:34:41.442Z,35.54
2018-07-24T15:37:10.077Z,35.87
2018-07-24T15:39:38.435Z,36.03
2018-07-24T15:42:06.798Z,36.08
2018-07-24T15:44:35.226Z,36.17
2018-07-24T15:47:03.604Z,36.49
2018-07-24T15:49:32.441Z,36.62
2018-07-24T15:52:01.179Z,36.54
2018-07-24T15:54:29.548Z,36.52
2018-07-24T15:56:57.922Z,36.55
2018-07-24T15:59:26.277Z,36.56
2018-07-24T16:01:54.647Z,36.55
2018-07-24T16:04:23.004Z,36.56
2018-07-24T16:06:51.402Z,36.60
2018-07-24T16:09:19.855Z,36.57
2018-07-24T16:11:49.562Z,36.46
2018-07-24T16:14:16.917Z,36.35
2018-07-24T16:16:45.302Z,36.23
2018-07-24T16:19:13.661Z,36.24
2018-07-24T16:21:42.020Z,36.21
2018-07-24T16:24:10.385Z,36.25
2018-07-24T16:26:38.779Z,36.23
2018-07-24T16:29:07.108Z,36.30
2018-07-24T16:31:35.492Z,36.18
2018-07-24T16:34:03.869Z,35.77
2018-07-24T16:36:40.642Z,35.81
2018-07-24T16:39:09.026Z,35.88
2018-07-24T16:41:37.404Z,35.91
2018-07-24T16:44:05.867Z,35.80
2018-07-24T16:46:34.165Z,35.69
2018-07-24T16:49:02.527Z,35.12
2018-07-24T16:51:30.896Z,34.14
2018-07-24T16:53:59.264Z,33.31
2018-07-24T16:56:27.644Z,32.63
2018-07-24T16:58:56.050Z,32.00
2018-07-24T17:01:24.428Z,31.48
2018-07-24T17:03:52.974Z,31.02
2018-07-24T17:06:34.149Z,30.63
2018-07-24T17:09:08.791Z,30.19
2018-07-24T17:11:37.161Z,29.75
2018-07-24T17:14:05.541Z,29.37
2018-07-24T17:16:33.910Z,29.17
2018-07-24T17:19:02.287Z,29.06
2018-07-24T17:21:30.656Z,28.99
2018-07-24T17:23:59.024Z,28.88
2018-07-24T17:26:28.728Z,28.73
2018-07-24T17:28:57.289Z,28.64
2018-07-24T17:31:25.435Z,28.40
2018-07-24T17:33:53.811Z,28.20
2018-07-24T17:36:22.201Z,28.14
2018-07-24T17:38:50.590Z,28.14
2018-07-24T17:41:19.019Z,28.14
2018-07-24T17:43:47.629Z,28.09
2018-07-24T17:46:28.593Z,28.07
2018-07-24T17:48:57.852Z,27.99
2018-07-24T17:51:29.096Z,27.88
2018-07-24T17:53:57.505Z,27.79
2018-07-24T17:56:25.863Z,27.79
2018-07-24T17:58:54.285Z,27.79
2018-07-24T18:01:22.653Z,27.77
2018-07-24T18:03:51.021Z,27.72
2018-07-24T18:06:19.388Z,27.72
2018-07-24T18:08:47.772Z,27.71
2018-07-24T18:11:16.191Z,27.63
2018-07-24T18:13:44.558Z,27.51
2018-07-24T18:16:18.787Z,27.42
2018-07-24T18:18:52.360Z,27.33
2018-07-24T18:21:20.783Z,27.30
2018-07-24T18:23:49.095Z,27.28
2018-07-24T18:26:17.477Z,27.21
2018-07-24T18:28:45.850Z,27.18
2018-07-24T18:31:14.210Z,27.16
2018-07-24T18:33:42.612Z,27.15
2018-07-24T18:36:10.972Z,27.16
2018-07-24T18:38:39.404Z,27.10
2018-07-24T18:41:18.233Z,26.90
2018-07-24T18:43:46.647Z,26.74
2018-07-24T18:46:16.041Z,26.64
2018-07-24T18:48:44.416Z,26.57
2018-07-24T18:51:16.245Z,26.55
2018-07-24T18:53:44.651Z,26.53
2018-07-24T18:56:13.012Z,26.44
2018-07-24T18:58:41.437Z,26.36
2018-07-24T19:01:10.904Z,26.37
2018-07-24T19:03:39.251Z,26.39
2018-07-24T19:06:07.613Z,26.36
2018-07-24T19:08:35.968Z,26.30
2018-07-24T19:11:04.378Z,26.25
2018-07-24T19:13:33.626Z,26.24
2018-07-24T19:16:02.033Z,26.20
2018-07-24T19:18:33.498Z,26.09
2018-07-24T19:20:59.324Z,26.05
2018-07-24T19:23:27.483Z,25.98
2018-07-24T19:25:55.840Z,25.91
2018-07-24T19:28:24.203Z,25.81
2018-07-24T19:30:52.631Z,25.76
2018-07-24T19:33:20.943Z,25.66
2018-07-24T19:35:49.311Z,25.52
2018-07-24T19:38:18.421Z,25.40
2018-07-24T19:40:50.031Z,25.41
2018-07-24T19:43:18.414Z,25.40
2018-07-24T19:45:46.805Z,25.35
2018-07-24T19:48:15.185Z,24.94
2018-07-24T19:50:43.557Z,24.41
2018-07-24T19:53:11.903Z,24.08
2018-07-24T19:55:40.319Z,23.82
2018-07-24T19:58:08.666Z,23.51
2018-07-24T20:00:37.273Z,23.29
2018-07-24T20:03:05.461Z,23.11
2018-07-24T20:05:34.835Z,23.01
2018-07-24T20:08:04.587Z,23.05
2018-07-24T20:10:46.631Z,23.05
2018-07-24T20:13:15.048Z,22.99
2018-07-24T20:15:43.481Z,23.00
2018-07-24T20:18:11.857Z,23.19
2018-07-24T20:20:41.119Z,23.37
2018-07-24T20:23:09.945Z,23.32
2018-07-24T20:25:49.075Z,23.29
2018-07-24T20:28:17.518Z,23.10
2018-07-24T20:30:45.910Z,22.94
2018-07-24T20:33:14.275Z,22.89
2018-07-24T20:35:42.683Z,22.83
2018-07-24T20:38:11.057Z,22.76
2018-07-24T20:40:39.670Z,22.76
2018-07-24T20:43:08.049Z,22.76
2018-07-24T20:45:36.407Z,22.86
2018-07-24T20:48:04.801Z,23.02
2018-07-24T20:50:33.174Z,23.16
2018-07-24T20:53:01.552Z,23.34
2018-07-24T20:55:29.946Z,23.47
2018-07-24T20:57:58.315Z,23.27
2018-07-24T21:00:26.716Z,23.24
2018-07-24T21:02:55.048Z,23.32
2018-07-24T21:05:27.050Z,23.40
2018-07-24T21:07:55.447Z,23.36
2018-07-24T21:10:23.821Z,23.35
2018-07-24T21:15:51.663Z,23.52
2018-07-24T21:18:24.802Z,23.59
2018-07-24T21:23:26.566Z,23.57
2018-07-24T21:25:55.004Z,23.53
2018-07-24T21:28:23.392Z,23.55
2018-07-24T21:30:51.825Z,23.55
2018-07-24T21:33:20.354Z,23.54
2018-07-24T21:35:55.236Z,23.57
2018-07-24T21:38:23.382Z,23.58
2018-07-24T21:40:51.989Z,23.51
2018-07-24T21:43:20.281Z,23.42
2018-07-24T21:45:48.679Z,23.28
2018-07-24T21:48:17.207Z,23.21
2018-07-24T21:50:45.659Z,23.16
2018-07-24T21:53:20.168Z,23.18
2018-07-24T21:55:48.559Z,23.24
2018-07-24T21:58:16.944Z,23.26
2018-07-24T22:00:45.373Z,23.25
2018-07-24T22:03:13.683Z,23.26
2018-07-24T22:05:42.061Z,23.28
2018-07-24T22:08:10.438Z,23.23
2018-07-24T22:10:46.643Z,23.17
2018-07-24T22:13:15.014Z,23.09
2018-07-24T22:15:43.399Z,23.06
2018-07-24T22:18:11.797Z,22.90
2018-07-24T22:20:40.138Z,22.86
2018-07-24T22:23:08.875Z,22.89
2018-07-24T22:25:37.474Z,22.92
2018-07-24T22:28:06.514Z,22.91
2018-07-24T22:30:34.921Z,22.89
2018-07-24T22:33:03.279Z,22.88
2018-07-24T22:35:31.685Z,22.91
2018-07-24T22:38:00.282Z,22.89
2018-07-24T22:40:28.673Z,22.88
2018-07-24T22:42:57.055Z,22.88
2018-07-24T22:45:25.436Z,22.80
2018-07-24T22:47:54.681Z,22.70
2018-07-24T22:50:23.258Z,22.65
2018-07-24T22:52:51.413Z,22.63
2018-07-24T22:55:19.807Z,22.57
2018-07-24T22:57:48.224Z,22.50
2018-07-24T23:00:16.617Z,22.50
2018-07-24T23:02:45.006Z,22.50
2018-07-24T23:05:17.793Z,22.41
2018-07-24T23:07:47.024Z,22.39
2018-07-24T23:10:15.396Z,22.43
2018-07-24T23:12:43.942Z,22.42
2018-07-24T23:15:15.287Z,22.39
2018-07-24T23:17:42.999Z,22.33
2018-07-24T23:20:13.236Z,22.31
2018-07-24T23:22:41.611Z,22.30
2018-07-24T23:25:09.986Z,22.20
2018-07-24T23:27:38.364Z,22.18
2018-07-24T23:30:06.718Z,22.20
2018-07-24T23:32:35.081Z,22.22
2018-07-24T23:35:03.466Z,22.25
2018-07-24T23:37:31.834Z,22.25
2018-07-24T23:40:00.224Z,22.25
2018-07-24T23:42:28.598Z,22.22
2018-07-24T23:44:56.972Z,22.17
2018-07-24T23:47:25.354Z,22.16
2018-07-24T23:49:53.755Z,22.12
2018-07-24T23:52:22.100Z,22.07
2018-07-24T23:54:50.477Z,22.07
2018-07-24T23:57:18.824Z,22.00
2018-07-24T23:59:47.203Z,22.03
